Time;durP1;ratioP1;P1;durP2;ratioP2;P2;SDS_P1;SDS_P2;PMS_P1;PMS_P2;Temp;Humidity;BMP_temperature;BMP_pressure;BME280_temperature;BME280_humidity;BME280_pressure;Samples;Min_cycle;Max_cycle;Signal;HPM_P1;HPM_P2
2022/06/25 00:00:28;;;;;;;;;;;27.10;44.50;;;31.33;28.09;100602.22;5113296;28;20002;-13
2022/06/25 00:02:53;;;;;;;;;;;27.10;44.50;;;31.34;28.19;100603.06;5113195;28;19919;-12
2022/06/25 00:05:28;;;;;;;;;;;27.10;44.50;;;31.31;28.32;100593.44;5116114;28;20006;-12
2022/06/25 00:07:55;;;;;;;;;;;27.10;44.60;;;31.35;28.25;100602.06;5115500;28;19923;-12
2022/06/25 00:10:21;;;;;;;;;;;27.10;44.60;;;31.34;28.08;100594.94;5117190;28;19938;-12
2022/06/25 00:12:47;;;;;;;;;;;27.10;44.60;;;31.32;28.26;100600.53;5116653;28;19919;-12
2022/06/25 00:15:13;;;;;;;;;;;27.10;44.60;;;31.30;28.19;100597.16;5116702;28;20465;-12
2022/06/25 00:17:39;;;;;;;;;;;27.10;44.60;;;31.30;28.32;100590.91;5116455;28;19922;-13
2022/06/25 00:20:05;;;;;;;;;;;27.10;44.60;;;31.34;28.37;100605.75;5116484;28;19965;-12
2022/06/25 00:22:31;;;;;;;;;;;27.10;44.60;;;31.32;28.29;100615.91;5116515;28;19931;-12
2022/06/25 00:24:57;;;;;;;;;;;27.10;44.60;;;31.33;28.20;100617.59;5116567;28;19915;-12
2022/06/25 00:27:23;;;;;;;;;;;27.10;44.60;;;31.33;28.21;100626.53;5116542;28;20419;-12
2022/06/25 00:29:49;;;;;;;;;;;27.10;44.70;;;31.29;28.10;100635.13;5116504;28;20391;-12
2022/06/25 00:32:15;;;;;;;;;;;27.10;44.70;;;31.29;28.18;100635.13;5116381;28;20030;-13
2022/06/25 00:34:41;;;;;;;;;;;27.10;44.90;;;31.32;28.17;100651.84;5116352;28;19927;-13
2022/06/25 00:37:07;;;;;;;;;;;27.10;44.70;;;31.31;28.46;100652.88;5116231;28;20356;-13
2022/06/25 00:39:34;;;;;;;;;;;27.10;44.70;;;31.30;28.34;100648.47;5116037;28;20367;-12
2022/06/25 00:42:01;;;;;;;;;;;27.10;44.70;;;31.24;28.28;100641.06;5097029;28;19924;-12
2022/06/25 00:44:30;;;;;;;;;;;27.10;44.70;;;31.33;28.30;100663.53;5097961;28;20377;-13
2022/06/25 00:46:57;;;;;;;;;;;27.10;44.70;;;31.31;28.44;100655.59;5116209;28;19916;-12
2022/06/25 00:49:22;;;;;;;;;;;27.10;44.70;;;31.26;28.34;100655.25;5115025;28;19950;-13
2022/06/25 00:51:50;;;;;;;;;;;27.10;44.70;;;31.26;28.46;100654.38;5116401;28;19969;-12
2022/06/25 00:54:16;;;;;;;;;;;27.10;44.70;;;31.28;28.11;100664.03;5116689;28;19922;-12
2022/06/25 00:56:48;;;;;;;;;;;27.10;44.70;;;31.26;28.15;100662.50;5115942;28;19922;-12
2022/06/25 00:59:14;;;;;;;;;;;27.10;44.70;;;31.29;28.31;100671.13;5116257;28;19922;-12
2022/06/25 01:01:40;;;;;;;;;;;27.10;44.70;;;31.26;28.57;100660.66;5098332;28;19931;-12
2022/06/25 01:04:06;;;;;;;;;;;27.10;44.80;;;31.26;28.43;100665.19;5115882;28;19928;-12
2022/06/25 01:06:31;;;;;;;;;;;27.10;44.80;;;31.26;28.28;100673.28;5114458;28;20313;-12
2022/06/25 01:08:57;;;;;;;;;;;27.10;44.80;;;31.28;28.40;100674.81;5115674;28;20007;-12
2022/06/25 01:11:24;;;;;;;;;;;27.10;44.80;;;31.23;28.26;100662.84;5098153;28;20379;-12
2022/06/25 01:13:49;;;;;;;;;;;27.10;44.80;;;31.27;28.57;100681.22;5097988;28;20290;-12
2022/06/25 01:16:17;;;;;;;;;;;27.10;44.80;;;31.28;28.62;100676.69;5115420;28;19915;-12
2022/06/25 01:18:43;;;;;;;;;;;27.10;44.80;;;31.23;28.39;100671.78;5116026;28;19915;-13
2022/06/25 01:21:09;;;;;;;;;;;27.10;44.90;;;31.26;28.34;100687.66;5115524;28;19964;-12
2022/06/25 01:23:35;;;;;;;;;;;27.10;44.80;;;31.28;28.56;100687.50;5113627;28;19951;-12
2022/06/25 01:26:01;;;;;;;;;;;27.10;44.80;;;31.28;28.50;100693.72;5097250;28;19958;-12
2022/06/25 01:28:27;;;;;;;;;;;27.10;44.80;;;31.26;28.42;100693.06;5115284;28;19950;-12
2022/06/25 01:30:53;;;;;;;;;;;27.10;44.80;;;31.20;28.48;100688.31;5115825;28;19915;-12
2022/06/25 01:33:19;;;;;;;;;;;27.10;44.90;;;31.19;28.60;100684.78;5115171;28;19922;-13
2022/06/25 01:35:44;;;;;;;;;;;27.00;44.80;;;31.21;28.40;100690.84;5115331;28;19915;-12
2022/06/25 01:38:10;;;;;;;;;;;27.00;44.80;;;31.23;28.58;100689.84;5095572;28;19923;-12
2022/06/25 01:40:36;;;;;;;;;;;27.00;44.80;;;31.21;28.63;100682.75;5115314;28;19915;-12
2022/06/25 01:43:02;;;;;;;;;;;27.00;44.80;;;31.21;28.41;100682.75;5115311;28;19916;-12
2022/06/25 01:45:35;;;;;;;;;;;27.00;44.80;;;31.19;28.37;100676.69;5115562;28;19916;-12
2022/06/25 01:48:03;;;;;;;;;;;27.00;44.80;;;31.22;28.30;100686.28;5115150;28;20488;-12
2022/06/25 01:50:30;;;;;;;;;;;27.00;44.80;;;31.21;28.71;100690.03;5113779;28;19947;-12
2022/06/25 01:52:56;;;;;;;;;;;27.00;44.80;;;31.23;28.38;100689.84;5096742;28;19923;-12
2022/06/25 01:55:22;;;;;;;;;;;27.00;44.80;;;31.27;28.46;100704.69;5096862;28;19915;-12
2022/06/25 01:57:48;;;;;;;;;;;27.00;44.80;;;31.24;28.35;100705.91;5114831;28;19916;-12
2022/06/25 02:00:23;;;;;;;;;;;27.10;44.90;;;31.22;28.44;100702.50;5098089;28;19948;-12
2022/06/25 02:02:54;;;;;;;;;;;27.00;44.80;;;31.25;28.65;100704.03;5114106;28;19922;-12
2022/06/25 02:05:56;;;;;;;;;;;27.00;44.90;;;31.24;28.57;100699.63;5113479;28;20014;-12
2022/06/25 02:08:08;;;;;;;;;;;27.00;44.80;;;31.26;28.46;100703.88;5114835;28;19923;-12
2022/06/25 02:10:34;;;;;;;;;;;27.00;44.90;;;31.22;28.57;100686.28;5114894;28;19916;-12
2022/06/25 02:13:00;;;;;;;;;;;27.10;44.90;;;31.27;28.45;100686.63;5096685;28;20402;-12
2022/06/25 02:15:25;;;;;;;;;;;27.10;44.90;;;31.27;28.52;100702.84;5114793;28;19992;-13
2022/06/25 02:17:51;;;;;;;;;;;27.00;44.90;;;31.24;28.49;100691.53;5114660;28;19923;-12
2022/06/25 02:20:18;;;;;;;;;;;27.00;44.90;;;31.27;28.37;100704.69;5095762;28;19978;-12
2022/06/25 02:22:44;;;;;;;;;;;27.00;44.90;;;31.28;28.28;100695.59;5114610;28;19955;-12
2022/06/25 02:25:10;;;;;;;;;;;27.00;44.90;;;31.28;28.78;100696.44;5114547;28;20279;-12
2022/06/25 02:27:36;;;;;;;;;;;27.00;44.90;;;31.20;28.75;100686.47;5113247;28;19923;-13
2022/06/25 02:30:02;;;;;;;;;;;27.10;45.00;;;31.23;28.71;100693.41;5114873;28;20393;-12
2022/06/25 02:32:30;;;;;;;;;;;27.00;44.90;;;31.21;28.58;100696.25;5113159;28;19922;-12
2022/06/25 02:34:56;;;;;;;;;;;27.00;45.00;;;31.26;28.69;100700.31;5094793;28;19916;-12
2022/06/25 02:37:22;;;;;;;;;;;27.00;44.90;;;31.22;28.68;100716.00;5114271;28;20015;-12
2022/06/25 02:39:48;;;;;;;;;;;27.00;45.00;;;31.19;28.68;100711.78;5095076;28;20014;-12
2022/06/25 02:42:14;;;;;;;;;;;27.00;45.00;;;31.15;28.50;100710.41;5113322;28;19915;-12
2022/06/25 02:44:40;;;;;;;;;;;27.00;45.00;;;31.17;28.41;100708.44;5096005;28;20351;-12
2022/06/25 02:47:06;;;;;;;;;;;27.00;45.00;;;31.23;28.38;100722.28;5096319;28;19922;-12
2022/06/25 02:49:48;;;;;;;;;;;27.00;45.10;;;31.21;28.62;100717.03;5112931;28;19923;-12
2022/06/25 02:52:15;;;;;;;;;;;27.00;45.00;;;31.21;28.54;100715.16;5095933;28;19916;-12
2022/06/25 02:54:40;;;;;;;;;;;27.00;45.10;;;31.20;28.37;100726.97;5112790;28;20321;-12
2022/06/25 02:59:51;;;;;;;;;;;27.00;45.10;;;31.15;28.59;100729.31;5095306;28;19923;-12
2022/06/25 03:02:17;;;;;;;;;;;27.00;45.10;;;31.16;28.70;100717.53;5078886;28;20010;-13
2022/06/25 03:04:44;;;;;;;;;;;27.00;45.10;;;31.20;28.59;100726.13;5112677;28;19968;-13
2022/06/25 03:07:10;;;;;;;;;;;27.00;45.10;;;31.15;28.54;100721.22;5095886;28;19916;-12
2022/06/25 03:09:35;;;;;;;;;;;27.00;45.10;;;31.18;28.60;100726.28;5112593;28;20382;-12
2022/06/25 03:12:03;;;;;;;;;;;27.00;45.10;;;31.20;28.62;100729.66;5111581;28;20310;-12
2022/06/25 03:14:29;;;;;;;;;;;27.00;45.10;;;31.14;28.67;100713.28;5112400;28;19916;-12
2022/06/25 03:16:56;;;;;;;;;;;27.00;45.10;;;31.20;28.72;100718.03;5096012;28;19915;-12
2022/06/25 03:19:26;;;;;;;;;;;27.00;45.10;;;31.13;28.72;100709.75;5094607;28;20400;-13
2022/06/25 03:22:02;;;;;;;;;;;27.00;45.10;;;31.20;28.69;100728.84;5096068;28;20056;-12
2022/06/25 03:24:30;;;;;;;;;;;27.00;45.20;;;31.19;28.65;100724.44;5095259;28;19916;-12
2022/06/25 03:26:56;;;;;;;;;;;27.00;45.10;;;31.12;28.71;100720.72;5095342;28;19951;-12
2022/06/25 03:29:22;;;;;;;;;;;27.00;45.10;;;31.17;28.58;100731.88;5095213;28;19951;-12
2022/06/25 03:31:48;;;;;;;;;;;27.00;45.10;;;31.17;28.66;100726.47;5112866;28;19923;-12
2022/06/25 03:34:43;;;;;;;;;;;27.00;45.20;;;31.14;28.78;100724.09;5104479;28;19931;-12
2022/06/25 03:37:08;;;;;;;;;;;27.00;45.20;;;31.15;28.66;100728.50;5094020;28;20747;-12
2022/06/25 03:39:34;;;;;;;;;;;27.00;45.20;;;31.18;28.66;100744.38;5113160;28;19923;-12
2022/06/25 03:42:01;;;;;;;;;;;27.00;45.20;;;31.18;28.76;100744.38;5095195;28;19961;-13
2022/06/25 03:44:43;;;;;;;;;;;27.00;45.20;;;31.18;28.66;100749.78;5095772;28;19915;-12
2022/06/25 03:47:13;;;;;;;;;;;27.00;45.20;;;31.18;28.86;100752.47;5111838;28;19916;-13
2022/06/25 03:49:39;;;;;;;;;;;27.00;45.20;;;31.15;28.75;100742.00;5093871;28;20014;-12
2022/06/25 03:52:10;;;;;;;;;;;27.00;45.20;;;31.20;28.58;100747.75;5112369;28;19916;-12
2022/06/25 03:54:37;;;;;;;;;;;27.00;45.10;;;31.18;28.74;100741.66;5095059;28;20007;-12
2022/06/25 03:57:03;;;;;;;;;;;27.00;45.10;;;31.16;28.51;100739.13;5111847;28;20024;-12
2022/06/25 03:59:43;;;;;;;;;;;27.00;45.10;;;31.22;28.58;100743.00;5111931;28;20363;-13
2022/06/25 04:02:20;;;;;;;;;;;27.00;45.10;;;31.21;28.85;100744.88;5112584;28;20374;-12
2022/06/25 04:05:12;;;;;;;;;;;27.10;45.10;;;31.17;28.66;100737.25;5112977;28;19923;-12
2022/06/25 04:07:37;;;;;;;;;;;27.10;45.10;;;31.21;28.69;100744.03;5111586;28;19916;-13
2022/06/25 04:10:06;;;;;;;;;;;27.10;45.10;;;31.25;28.82;100747.25;5094890;28;20002;-12
2022/06/25 04:12:33;;;;;;;;;;;27.10;45.00;;;31.28;28.86;100753.16;5094788;28;20002;-12
2022/06/25 04:14:59;;;;;;;;;;;27.10;45.00;;;31.27;28.69;100748.75;5111638;28;19920;-12
2022/06/25 04:17:25;;;;;;;;;;;27.10;44.90;;;31.31;28.70;100755.53;5113030;28;19985;-12
2022/06/25 04:19:50;;;;;;;;;;;27.20;44.90;;;31.31;28.36;100754.69;5094607;28;20481;-12
2022/06/25 04:22:18;;;;;;;;;;;27.20;44.90;;;31.34;28.67;100757.91;5094066;28;20409;-12
2022/06/25 04:24:43;;;;;;;;;;;27.20;44.80;;;31.30;28.68;100742.19;5112902;28;19951;-12
2022/06/25 04:29:03;;;;;;;;;;;27.20;44.80;;;31.35;28.71;100766.84;5093058;28;19916;-12
2022/06/25 04:29:56;;;;;;;;;;;27.20;44.80;;;31.35;28.57;100761.44;5093456;28;19916;-13
2022/06/25 04:32:23;;;;;;;;;;;27.20;44.80;;;31.34;28.60;100757.91;5109421;28;19923;-12
2022/06/25 04:35:15;;;;;;;;;;;27.30;44.80;;;31.39;28.58;100766.34;5110893;28;19922;-13
2022/06/25 04:37:43;;;;;;;;;;;27.30;44.80;;;31.42;28.68;100769.72;5092773;28;19919;-12
2022/06/25 04:40:10;;;;;;;;;;;27.30;44.70;;;31.43;28.56;100760.63;5095017;28;19981;-12
2022/06/25 04:42:37;;;;;;;;;;;27.30;44.60;;;31.39;28.30;100752.84;5094743;28;19920;-12
2022/06/25 04:45:03;;;;;;;;;;;27.40;44.70;;;31.47;28.74;100765.50;5111926;28;19923;-12
2022/06/25 04:47:34;;;;;;;;;;;27.40;44.60;;;31.45;28.28;100767.53;5093415;28;19924;-12
2022/06/25 04:50:19;;;;;;;;;;;27.40;44.60;;;31.53;28.30;100785.66;5113954;28;19942;-12
2022/06/25 04:52:45;;;;;;;;;;;27.40;44.60;;;31.50;28.22;100767.03;5115041;28;20323;-12
2022/06/25 04:55:11;;;;;;;;;;;27.40;44.50;;;31.52;28.24;100771.28;5114748;28;19916;-12
2022/06/25 04:57:37;;;;;;;;;;;27.50;44.50;;;31.54;28.49;100774.69;5097477;28;20026;-12
2022/06/25 05:00:21;;;;;;;;;;;27.50;44.50;;;31.54;28.42;100779.22;5114387;28;19923;-12
2022/06/25 05:02:47;;;;;;;;;;;27.50;44.40;;;31.63;28.33;100791.75;5097685;28;20324;-12
2022/06/25 05:05:15;;;;;;;;;;;27.60;44.40;;;31.65;28.28;100788.88;5097865;28;19962;-12
2022/06/25 05:07:40;;;;;;;;;;;27.50;44.30;;;31.68;28.14;100797.50;5097744;28;19992;-12
2022/06/25 05:10:06;;;;;;;;;;;27.60;44.40;;;31.69;28.47;100792.91;5096523;28;19959;-12
2022/06/25 05:15:17;;;;;;;;;;;27.60;44.20;;;31.72;28.30;100796.13;5116128;28;20291;-12
2022/06/25 05:17:43;;;;;;;;;;;27.70;44.20;;;31.67;28.23;100782.28;5097764;28;19916;-12
2022/06/25 05:20:11;;;;;;;;;;;27.70;44.20;;;31.71;28.37;100791.75;5097843;28;19920;-12
2022/06/25 05:22:37;;;;;;;;;;;27.70;44.10;;;31.76;28.38;100796.66;5114601;28;19923;-12
2022/06/25 05:25:04;;;;;;;;;;;27.70;44.10;;;31.78;28.04;100805.44;5114340;28;19915;-12
2022/06/25 05:27:29;;;;;;;;;;;27.70;44.10;;;31.79;28.11;100806.28;5115521;28;20316;-12
2022/06/25 05:29:56;;;;;;;;;;;27.80;44.10;;;31.80;27.89;100808.81;5114703;28;20356;-12
2022/06/25 05:32:22;;;;;;;;;;;27.80;44.00;;;31.87;28.27;100819.81;5114640;28;19922;-12
2022/06/25 05:34:48;;;;;;;;;;;27.80;44.60;;;31.89;28.10;100820.47;5097101;28;20371;-13
2022/06/25 05:37:15;;;;;;;;;;;27.80;44.00;;;31.87;28.12;100817.94;5115558;28;19941;-13
2022/06/25 05:39:41;;;;;;;;;;;27.80;43.90;;;31.94;27.83;100826.22;5113511;28;19916;-12
2022/06/25 05:42:07;;;;;;;;;;;27.90;43.90;;;31.92;27.89;100828.25;5115674;28;19982;-12
2022/06/25 05:44:32;;;;;;;;;;;27.90;43.80;;;31.94;27.85;100823.50;5115319;28;19916;-12
2022/06/25 05:46:58;;;;;;;;;;;28.00;43.80;;;32.01;28.05;100835.38;5115241;28;20010;-12
2022/06/25 05:49:24;;;;;;;;;;;28.00;43.60;;;32.02;27.72;100837.03;5115096;28;19991;-12
2022/06/25 05:51:50;;;;;;;;;;;28.10;43.60;;;32.11;27.87;100838.78;5115241;28;19922;-12
2022/06/25 05:54:16;;;;;;;;;;;28.10;43.50;;;32.16;27.83;100843.69;5115153;28;19961;-12
2022/06/25 05:56:42;;;;;;;;;;;28.20;43.40;;;32.14;27.95;100840.28;5115441;28;20371;-12
2022/06/25 05:59:07;;;;;;;;;;;28.30;43.30;;;32.20;27.57;100845.00;5114966;28;19923;-12
2022/06/25 06:01:33;;;;;;;;;;;28.30;43.20;;;32.27;27.44;100843.31;5115076;28;19953;-12
2022/06/25 06:03:59;;;;;;;;;;;28.40;43.20;;;32.29;27.37;100843.13;5115604;28;19973;-12
2022/06/25 06:06:25;;;;;;;;;;;28.40;43.00;;;32.35;27.72;100842.47;5114994;28;19958;-12
2022/06/25 06:08:50;;;;;;;;;;;28.50;43.00;;;32.40;27.52;100853.63;5114943;28;19916;-12
2022/06/25 06:11:17;;;;;;;;;;;28.50;42.90;;;32.42;27.68;100848.88;5114865;28;19930;-12
2022/06/25 06:13:42;;;;;;;;;;;28.50;42.80;;;32.48;27.50;100853.59;5114845;28;20279;-12
2022/06/25 06:16:08;;;;;;;;;;;28.60;42.80;;;32.57;27.60;100865.25;5115141;28;19915;-12
2022/06/25 06:18:34;;;;;;;;;;;28.70;42.70;;;32.62;27.10;100868.31;5114366;28;20067;-12
2022/06/25 06:21:00;;;;;;;;;;;28.80;42.70;;;32.63;27.22;100858.34;5114491;28;19923;-12
2022/06/25 06:23:25;;;;;;;;;;;28.80;42.60;;;32.73;27.00;100856.28;5114472;28;19916;-12
2022/06/25 06:25:51;;;;;;;;;;;28.80;42.50;;;32.72;27.43;100849.19;5114954;28;20010;-12
2022/06/25 06:28:17;;;;;;;;;;;28.90;42.50;;;32.76;27.38;100855.97;5114736;28;19923;-12
2022/06/25 06:30:42;;;;;;;;;;;28.90;42.40;;;32.80;27.02;100854.56;5114895;28;20006;-12
2022/06/25 06:33:09;;;;;;;;;;;28.90;42.40;;;32.86;27.04;100859.31;5114478;28;19915;-12
2022/06/25 06:35:35;;;;;;;;;;;28.90;42.40;;;32.85;27.16;100856.75;5114491;28;19924;-12
2022/06/25 06:38:01;;;;;;;;;;;29.00;42.40;;;32.91;26.80;100861.47;5114227;28;19915;-13
2022/06/25 06:40:26;;;;;;;;;;;29.00;42.40;;;32.94;26.98;100868.41;5114701;28;19923;-12
2022/06/25 06:42:52;;;;;;;;;;;29.00;42.30;;;32.94;26.67;100858.41;5114791;28;19964;-12
2022/06/25 06:45:17;;;;;;;;;;;29.00;42.20;;;33.00;26.72;100871.25;5114347;28;20011;-12
2022/06/25 06:47:43;;;;;;;;;;;29.10;42.30;;;33.04;26.73;100874.47;5114210;28;19916;-13
2022/06/25 06:50:10;;;;;;;;;;;29.10;42.30;;;33.04;26.91;100880.72;5114631;28;19916;-12
2022/06/25 06:52:36;;;;;;;;;;;29.10;42.20;;;33.04;27.01;100863.63;5114471;28;19923;-12
2022/06/25 06:55:04;;;;;;;;;;;29.10;42.20;;;33.05;26.92;100871.59;5114228;28;19920;-12
2022/06/25 06:57:34;;;;;;;;;;;29.10;42.20;;;33.12;26.82;100879.00;5113969;28;19916;-12
2022/06/25 07:00:01;;;;;;;;;;;29.20;42.20;;;33.10;26.96;100868.34;5114120;28;20375;-12
2022/06/25 07:02:27;;;;;;;;;;;29.20;42.20;;;33.11;26.41;100875.44;5114383;28;20324;-12
2022/06/25 07:04:53;;;;;;;;;;;29.20;42.20;;;33.14;26.74;100877.81;5114356;28;20026;-12
2022/06/25 07:07:19;;;;;;;;;;;29.20;42.10;;;33.18;26.64;100881.03;5113925;28;19958;-12
2022/06/25 07:09:45;;;;;;;;;;;29.20;42.10;;;33.23;26.72;100882.22;5113812;28;19916;-12
2022/06/25 07:12:10;;;;;;;;;;;29.20;42.10;;;33.18;26.85;100881.91;5113506;28;20388;-12
2022/06/25 07:14:36;;;;;;;;;;;29.30;42.10;;;33.27;26.79;100890.00;5113693;28;19923;-12
2022/06/25 07:17:02;;;;;;;;;;;29.30;42.10;;;33.26;26.69;100880.16;5114412;28;19923;-12
2022/06/25 07:19:28;;;;;;;;;;;29.30;42.10;;;33.31;26.42;100897.56;5113571;28;19938;-12
2022/06/25 07:21:54;;;;;;;;;;;29.30;42.00;;;33.27;26.75;100871.84;5114184;28;20325;-12
2022/06/25 07:24:21;;;;;;;;;;;29.30;42.00;;;33.35;26.32;100893.50;5114109;28;20444;-12
2022/06/25 07:26:47;;;;;;;;;;;29.40;42.10;;;33.34;26.41;100889.09;5114046;28;20291;-12
2022/06/25 07:29:13;;;;;;;;;;;29.40;42.10;;;33.33;26.48;100883.84;5113556;28;19919;-12
2022/06/25 07:31:39;;;;;;;;;;;29.40;42.00;;;33.37;26.57;100888.75;5113679;28;20449;-12
2022/06/25 07:34:05;;;;;;;;;;;29.40;42.00;;;33.40;26.50;100891.09;5113632;28;20022;-12
2022/06/25 07:36:31;;;;;;;;;;;29.40;42.00;;;33.39;26.34;100885.84;5113631;28;20389;-12
2022/06/25 07:38:57;;;;;;;;;;;29.40;42.00;;;33.39;26.57;100892.09;5113439;28;19930;-12
2022/06/25 07:41:22;;;;;;;;;;;29.40;41.90;;;33.40;26.60;100895.69;5113853;28;19916;-12
2022/06/25 07:43:49;;;;;;;;;;;29.40;41.90;;;33.47;26.17;100907.50;5113524;28;19916;-12
2022/06/25 07:46:16;;;;;;;;;;;29.40;41.90;;;33.48;26.36;100906.50;5113683;28;19938;-12
2022/06/25 07:48:43;;;;;;;;;;;29.40;41.90;;;33.50;26.59;100907.16;5113502;28;19926;-12
2022/06/25 07:53:54;;;;;;;;;;;29.40;41.90;;;33.47;26.01;100893.13;5113486;28;19922;-12
2022/06/25 07:56:20;;;;;;;;;;;29.40;41.90;;;33.49;26.10;100894.59;5113307;28;20419;-12
2022/06/25 07:58:47;;;;;;;;;;;29.40;41.90;;;33.52;26.28;100906.97;5113147;28;19916;-12
2022/06/25 08:01:14;;;;;;;;;;;29.40;41.90;;;33.53;26.04;100908.66;5113208;28;19915;-12
2022/06/25 08:03:40;;;;;;;;;;;29.40;41.90;;;33.52;26.18;100905.09;5113147;28;19916;-12
2022/06/25 08:06:05;;;;;;;;;;;29.40;42.00;;;33.47;26.40;100899.38;5113110;28;19916;-12
2022/06/25 08:08:31;;;;;;;;;;;29.40;42.00;;;33.50;26.27;100893.59;5113045;28;20022;-12
2022/06/25 08:10:57;;;;;;;;;;;29.40;42.00;;;33.54;26.05;100915.75;5113040;28;19916;-12
2022/06/25 08:13:23;;;;;;;;;;;29.40;42.00;;;33.54;25.97;100921.19;5112944;28;19923;-12
2022/06/25 08:15:49;;;;;;;;;;;29.40;42.00;;;33.53;26.26;100917.63;5112799;28;20312;-12
2022/06/25 08:18:16;;;;;;;;;;;29.40;42.00;;;33.53;26.46;100914.06;5113563;28;19923;-12
2022/06/25 08:20:42;;;;;;;;;;;29.40;42.60;;;33.53;26.09;100923.06;5112745;28;19955;-12
2022/06/25 08:23:07;;;;;;;;;;;29.40;42.10;;;33.45;26.15;100904.13;5113056;28;19965;-12
2022/06/25 08:25:33;;;;;;;;;;;29.40;42.10;;;33.50;26.23;100911.72;5114660;28;20252;-12
2022/06/25 08:27:59;;;;;;;;;;;29.40;42.10;;;33.52;26.14;100909.69;5116560;28;20371;-12
2022/06/25 08:30:25;;;;;;;;;;;29.30;42.00;;;33.52;26.03;100915.09;5116483;28;19916;-12
2022/06/25 08:32:51;;;;;;;;;;;29.30;42.10;;;33.48;26.60;100916.47;5116784;28;20275;-12
2022/06/25 08:35:17;;;;;;;;;;;29.30;42.10;;;33.46;26.38;100911.22;5116422;28;19919;-12
2022/06/25 08:37:44;;;;;;;;;;;29.30;42.20;;;33.49;26.44;100918.16;5116611;28;19923;-12
2022/06/25 08:40:10;;;;;;;;;;;29.20;42.10;;;33.44;26.20;100920.56;5116650;28;19915;-12
2022/06/25 08:42:36;;;;;;;;;;;29.20;42.20;;;33.43;26.09;100919.72;5116114;28;19915;-12
2022/06/25 08:45:03;;;;;;;;;;;29.20;42.20;;;33.39;26.17;100918.38;5096420;28;19923;-12
2022/06/25 08:47:29;;;;;;;;;;;29.20;42.30;;;33.42;26.12;100915.31;5116219;28;20003;-12
2022/06/25 08:49:54;;;;;;;;;;;29.20;42.30;;;33.41;26.55;100919.03;5116176;28;19967;-12
2022/06/25 08:52:21;;;;;;;;;;;29.10;42.30;;;33.35;26.50;100909.75;5116181;28;19961;-12
2022/06/25 08:54:48;;;;;;;;;;;29.10;42.30;;;33.34;26.04;100913.47;5116419;28;19961;-12
2022/06/25 08:57:14;;;;;;;;;;;29.10;42.40;;;33.34;26.52;100912.66;5116380;28;19947;-12
2022/06/25 08:59:39;;;;;;;;;;;29.10;42.40;;;33.36;26.57;100919.59;5115736;28;19973;-12
2022/06/25 09:02:05;;;;;;;;;;;29.00;42.50;;;33.29;26.57;100912.34;5116340;28;20387;-12
2022/06/25 09:04:34;;;;;;;;;;;29.00;42.50;;;33.26;26.49;100910.81;5097659;28;19915;-12
2022/06/25 09:07:11;;;;;;;;;;;29.00;42.60;;;33.26;26.49;100907.25;5116173;28;19919;-12
2022/06/25 09:09:37;;;;;;;;;;;29.00;42.60;;;33.21;26.64;100916.78;5116521;28;19938;-12
2022/06/25 09:12:08;;;;;;;;;;;28.90;42.60;;;33.20;26.23;100917.78;5116189;28;20327;-12
2022/06/25 09:14:35;;;;;;;;;;;28.80;42.70;;;33.12;26.64;100909.66;5115960;28;19916;-12
2022/06/25 09:17:08;;;;;;;;;;;28.90;42.70;;;33.11;26.29;100901.69;5116291;28;19921;-12
2022/06/25 09:19:40;;;;;;;;;;;28.90;42.70;;;33.16;26.74;100912.88;5115926;28;19922;-12
2022/06/25 09:22:08;;;;;;;;;;;28.90;42.70;;;33.15;26.45;100911.19;5115717;28;20329;-12
2022/06/25 09:24:46;;;;;;;;;;;28.90;42.70;;;33.15;26.37;100911.19;5115978;28;19977;-12
2022/06/25 09:27:13;;;;;;;;;;;28.90;42.80;;;33.13;26.68;100914.06;5116009;28;19915;-12
2022/06/25 09:29:42;;;;;;;;;;;28.90;42.80;;;33.14;26.78;100906.78;5115879;28;19919;-12
2022/06/25 09:32:09;;;;;;;;;;;28.80;42.70;;;33.12;26.82;100906.09;5115905;28;19968;-12
2022/06/25 09:34:36;;;;;;;;;;;28.80;42.80;;;33.10;26.44;100914.41;5115570;28;19919;-12
2022/06/25 09:37:17;;;;;;;;;;;28.80;42.80;;;33.08;26.67;100919.16;5114732;28;19919;-12
2022/06/25 09:39:44;;;;;;;;;;;28.80;42.90;;;33.05;26.60;100916.78;5115876;28;19915;-12
2022/06/25 09:42:27;;;;;;;;;;;28.70;42.90;;;32.99;26.42;100909.34;5115456;28;19922;-12
2022/06/25 09:45:05;;;;;;;;;;;28.70;43.00;;;33.01;26.88;100923.56;5115360;28;20379;-12
2022/06/25 09:47:34;;;;;;;;;;;28.70;43.00;;;33.01;26.96;100923.56;5115178;28;20015;-12
2022/06/25 09:50:10;;;;;;;;;;;28.70;43.00;;;32.97;26.60;100912.22;5115234;28;20315;-12
2022/06/25 09:52:36;;;;;;;;;;;28.70;43.00;;;32.98;26.89;100922.06;5115556;28;20412;-12
2022/06/25 09:55:03;;;;;;;;;;;28.70;43.00;;;32.93;26.64;100907.34;5115144;28;19939;-12
2022/06/25 09:57:31;;;;;;;;;;;28.70;43.10;;;32.97;26.73;100917.66;5114703;28;20056;-12
2022/06/25 09:59:58;;;;;;;;;;;28.60;43.00;;;32.92;26.55;100905.66;5114994;28;19915;-12
2022/06/25 10:02:29;;;;;;;;;;;28.60;43.00;;;32.96;26.71;100917.81;5112316;28;20003;-12
2022/06/25 10:05:04;;;;;;;;;;;28.70;43.10;;;32.91;26.89;100909.38;5115595;28;19964;-12
2022/06/25 10:10:20;;;;;;;;;;;28.60;43.10;;;32.89;26.72;100906.00;5114983;28;19916;-12
2022/06/25 10:12:50;;;;;;;;;;;28.60;43.10;;;32.93;27.01;100912.75;5114869;28;19980;-12
2022/06/25 10:15:17;;;;;;;;;;;28.60;43.10;;;32.90;26.68;100905.00;5096828;28;20290;-12
2022/06/25 10:17:48;;;;;;;;;;;28.60;43.10;;;32.93;27.05;100912.75;5115037;28;19922;-12
2022/06/25 10:20:16;;;;;;;;;;;28.60;43.20;;;32.87;27.10;100903.47;5115252;28;19916;-12
2022/06/25 10:22:42;;;;;;;;;;;28.60;43.20;;;32.90;27.15;100913.97;5114785;28;19969;-12
2022/06/25 10:25:11;;;;;;;;;;;28.60;43.20;;;32.85;26.61;100902.81;5114968;28;20329;-12
2022/06/25 10:27:44;;;;;;;;;;;28.60;43.10;;;32.86;26.78;100899.91;5114538;28;19915;-12
2022/06/25 10:30:11;;;;;;;;;;;28.60;43.10;;;32.90;26.65;100908.53;5114556;28;19915;-12
2022/06/25 10:32:47;;;;;;;;;;;28.60;43.20;;;32.86;27.04;100899.91;5114538;28;19931;-12
2022/06/25 10:35:30;;;;;;;;;;;28.60;43.20;;;32.82;27.04;100898.56;5114700;28;19981;-12
2022/06/25 10:38:11;;;;;;;;;;;28.60;43.20;;;32.88;26.88;100905.16;5114346;28;19998;-13
2022/06/25 10:40:53;;;;;;;;;;;28.60;43.20;;;32.86;27.06;100908.03;5114708;28;19922;-12
2022/06/25 10:43:50;;;;;;;;;;;28.50;43.20;;;32.85;27.21;100900.09;5114060;28;20007;-12
2022/06/25 10:46:20;;;;;;;;;;;28.60;43.30;;;32.80;27.05;100897.91;5114282;28;20003;-12
2022/06/25 10:49:11;;;;;;;;;;;28.50;43.30;;;32.82;27.16;100906.69;5113160;28;19998;-12
2022/06/25 10:51:42;;;;;;;;;;;28.50;43.30;;;32.83;27.20;100907.56;5101311;28;19960;-12
2022/06/25 10:54:24;;;;;;;;;;;28.50;43.30;;;32.82;27.13;100901.28;5114441;28;19915;-12
2022/06/25 10:56:51;;;;;;;;;;;28.50;43.40;;;32.79;27.24;100889.94;5114319;28;19923;-12
2022/06/25 10:59:36;;;;;;;;;;;28.50;43.40;;;32.81;27.21;100901.44;5114213;28;19916;-12
2022/06/25 11:02:04;;;;;;;;;;;28.50;43.40;;;32.73;26.94;100891.50;5114154;28;20279;-12
2022/06/25 11:04:31;;;;;;;;;;;28.50;43.40;;;32.76;27.05;100890.28;5113866;28;19923;-12
2022/06/25 11:07:14;;;;;;;;;;;28.50;43.40;;;32.76;27.26;100895.69;5113907;28;19923;-13
2022/06/25 11:09:41;;;;;;;;;;;28.50;43.40;;;32.76;26.92;100898.41;5112589;28;19919;-12
2022/06/25 11:12:07;;;;;;;;;;;28.50;43.40;;;32.78;27.30;100904.50;5094309;28;19916;-12
2022/06/25 11:14:33;;;;;;;;;;;28.50;43.40;;;32.78;27.08;100902.66;5113922;28;20367;-12
2022/06/25 11:17:08;;;;;;;;;;;28.50;43.30;;;32.79;27.04;100904.31;5114407;28;20048;-12
2022/06/25 11:19:34;;;;;;;;;;;28.50;43.40;;;32.80;26.90;100903.31;5110256;28;19916;-12
2022/06/25 11:22:01;;;;;;;;;;;28.50;43.40;;;32.80;26.76;100906.03;5114369;28;19922;-12
2022/06/25 11:24:28;;;;;;;;;;;28.50;43.40;;;32.79;27.25;100907.03;5113714;28;19916;-12